Time;durP1;ratioP1;P1;durP2;ratioP2;P2;SDS_P1;SDS_P2;PMS_P1;PMS_P2;Temp;Humidity;BMP_temperature;BMP_pressure;BME280_temperature;BME280_humidity;BME280_pressure;Samples;Min_cycle;Max_cycle;Signal;HPM_P1;HPM_P2
2022/06/26 00:01:35;;;;;;;3.83;1.75;;;;;;;;;;4908972;28;20087;-64
2022/06/26 00:04:01;;;;;;;3.33;1.83;;;;;;;;;;4912868;29;20055;-64
2022/06/26 00:06:29;;;;;;;3.47;1.88;;;;;;;;;;4914676;29;20056;-64
2022/06/26 00:08:57;;;;;;;3.38;1.80;;;;;;;;;;4912721;29;20058;-64
2022/06/26 00:11:23;;;;;;;7.70;3.67;;;;;;;;;;4913842;29;20096;-65
2022/06/26 00:13:50;;;;;;;9.73;2.50;;;;;;;;;;4925050;29;20055;-65
2022/06/26 00:16:17;;;;;;;6.82;3.67;;;;;;;;;;4932931;29;20059;-64
2022/06/26 00:18:44;;;;;;;6.68;2.60;;;;;;;;;;4913535;29;20055;-64
2022/06/26 00:21:11;;;;;;;3.70;2.15;;;;;;;;;;4910859;29;20098;-64
2022/06/26 00:23:39;;;;;;;3.33;1.70;;;;;;;;;;4920425;29;20061;-64
2022/06/26 00:26:06;;;;;;;5.47;1.92;;;;;;;;;;4933250;29;20086;-64
2022/06/26 00:28:32;;;;;;;5.50;2.55;;;;;;;;;;4919055;29;20059;-64
2022/06/26 00:30:59;;;;;;;6.72;2.10;;;;;;;;;;4913663;29;20059;-64
2022/06/26 00:33:25;;;;;;;3.80;2.00;;;;;;;;;;4909636;29;20059;-64
2022/06/26 00:35:52;;;;;;;3.85;1.83;;;;;;;;;;4914034;29;20051;-64
2022/06/26 00:38:21;;;;;;;3.72;1.85;;;;;;;;;;4912967;29;20054;-64
2022/06/26 00:40:49;;;;;;;5.75;2.40;;;;;;;;;;4933339;29;20059;-64
2022/06/26 00:43:15;;;;;;;3.72;2.10;;;;;;;;;;4920412;28;20066;-65
2022/06/26 00:45:42;;;;;;;4.95;1.98;;;;;;;;;;4932139;29;20055;-64
2022/06/26 00:48:08;;;;;;;5.07;2.15;;;;;;;;;;4910892;28;20063;-65
2022/06/26 00:50:35;;;;;;;6.15;2.05;;;;;;;;;;4927743;29;20059;-64
2022/06/26 00:53:02;;;;;;;4.10;1.90;;;;;;;;;;4929770;29;20059;-64
2022/06/26 00:55:29;;;;;;;3.47;1.83;;;;;;;;;;4926483;29;20047;-64
2022/06/26 00:57:57;;;;;;;3.78;1.63;;;;;;;;;;4931867;29;20059;-65
2022/06/26 01:00:23;;;;;;;5.68;3.35;;;;;;;;;;4912360;29;20109;-65
2022/06/26 01:02:50;;;;;;;4.35;1.88;;;;;;;;;;4913542;29;20078;-64
2022/06/26 01:05:16;;;;;;;5.35;2.30;;;;;;;;;;4908531;29;20056;-65
2022/06/26 01:07:43;;;;;;;5.78;2.80;;;;;;;;;;4913470;29;20107;-64
2022/06/26 01:10:10;;;;;;;4.80;2.78;;;;;;;;;;4908947;29;20059;-65
2022/06/26 01:12:37;;;;;;;5.57;2.03;;;;;;;;;;4913512;29;20067;-64
2022/06/26 01:15:08;;;;;;;3.50;1.70;;;;;;;;;;4909265;29;20052;-64
2022/06/26 01:17:35;;;;;;;7.18;1.95;;;;;;;;;;4913152;29;20154;-64
2022/06/26 01:20:02;;;;;;;4.20;1.60;;;;;;;;;;4911265;29;20249;-64
2022/06/26 01:22:30;;;;;;;3.85;1.77;;;;;;;;;;4932117;29;20087;-64
2022/06/26 01:24:57;;;;;;;2.83;1.58;;;;;;;;;;4923628;29;20051;-64
2022/06/26 01:27:23;;;;;;;3.67;2.00;;;;;;;;;;4913113;29;20056;-64
2022/06/26 01:29:50;;;;;;;3.63;1.55;;;;;;;;;;4909610;28;20059;-64
2022/06/26 01:32:17;;;;;;;4.43;2.17;;;;;;;;;;4913025;29;20055;-64
2022/06/26 01:34:43;;;;;;;6.40;1.83;;;;;;;;;;4912981;29;20059;-65
2022/06/26 01:37:10;;;;;;;7.95;2.95;;;;;;;;;;4925005;29;20139;-64
2022/06/26 01:39:38;;;;;;;2.35;1.58;;;;;;;;;;4926838;29;20055;-64
2022/06/26 01:42:05;;;;;;;4.95;2.10;;;;;;;;;;4925889;29;20059;-64
2022/06/26 01:44:31;;;;;;;6.53;1.52;;;;;;;;;;4931901;29;20049;-64
2022/06/26 01:46:58;;;;;;;5.95;2.17;;;;;;;;;;4914311;29;20047;-64
2022/06/26 01:49:26;;;;;;;3.47;1.65;;;;;;;;;;4913284;29;20059;-65
2022/06/26 01:51:53;;;;;;;4.57;2.73;;;;;;;;;;4907963;29;20051;-64
2022/06/26 01:54:20;;;;;;;5.57;2.92;;;;;;;;;;4912424;29;20058;-64
2022/06/26 01:56:48;;;;;;;4.43;2.60;;;;;;;;;;4914911;29;20059;-65
2022/06/26 01:59:15;;;;;;;4.47;2.20;;;;;;;;;;4931981;29;20047;-64
2022/06/26 02:01:41;;;;;;;4.07;1.65;;;;;;;;;;4925299;29;20043;-64
2022/06/26 02:04:08;;;;;;;6.28;2.55;;;;;;;;;;4927641;29;20066;-65
2022/06/26 02:06:34;;;;;;;6.22;2.20;;;;;;;;;;4920854;29;20122;-64
2022/06/26 02:09:01;;;;;;;5.88;2.80;;;;;;;;;;4924992;29;20055;-64
2022/06/26 02:14:24;;;;;;;3.85;2.40;;;;;;;;;;4852376;29;20140;-64
2022/06/26 02:16:51;;;;;;;4.57;2.30;;;;;;;;;;4902390;28;20105;-64
2022/06/26 02:19:17;;;;;;;3.80;1.95;;;;;;;;;;4929088;29;20066;-64
2022/06/26 02:21:44;;;;;;;3.20;1.67;;;;;;;;;;4928518;29;20119;-64
2022/06/26 02:24:10;;;;;;;6.85;1.77;;;;;;;;;;4923676;29;20051;-65
2022/06/26 02:26:37;;;;;;;2.97;1.42;;;;;;;;;;4930598;29;20146;-64
2022/06/26 02:29:03;;;;;;;3.50;2.08;;;;;;;;;;4922700;29;20055;-64
2022/06/26 02:31:31;;;;;;;3.45;1.80;;;;;;;;;;4932114;29;20137;-64
2022/06/26 02:33:58;;;;;;;3.33;1.55;;;;;;;;;;4924904;29;20094;-64
2022/06/26 02:36:24;;;;;;;3.20;1.58;;;;;;;;;;4931542;29;20062;-64
2022/06/26 02:38:51;;;;;;;2.65;1.38;;;;;;;;;;4923187;29;20062;-64
2022/06/26 02:41:18;;;;;;;3.28;1.75;;;;;;;;;;4927375;29;20059;-64
2022/06/26 02:43:45;;;;;;;3.58;1.70;;;;;;;;;;4924321;29;20070;-64
2022/06/26 02:46:11;;;;;;;6.80;2.35;;;;;;;;;;4931569;29;20051;-64
2022/06/26 02:48:39;;;;;;;4.28;1.83;;;;;;;;;;4922399;29;20047;-64
2022/06/26 02:54:08;;;;;;;4.90;2.40;;;;;;;;;;4929236;28;20055;-64
2022/06/26 02:56:35;;;;;;;8.05;2.55;;;;;;;;;;4956691;28;20055;-64
2022/06/26 02:59:02;;;;;;;6.60;2.17;;;;;;;;;;4936350;28;20058;-64
2022/06/26 03:01:28;;;;;;;4.57;1.92;;;;;;;;;;4927842;28;20122;-64
2022/06/26 03:03:56;;;;;;;3.47;1.70;;;;;;;;;;4938862;28;20070;-64
2022/06/26 03:06:23;;;;;;;3.88;2.05;;;;;;;;;;4961685;28;20109;-64
2022/06/26 03:08:50;;;;;;;10.98;5.55;;;;;;;;;;4965167;28;20051;-64
2022/06/26 03:11:16;;;;;;;9.18;4.35;;;;;;;;;;4937804;28;20058;-64
2022/06/26 03:13:43;;;;;;;9.60;5.28;;;;;;;;;;4950051;28;20118;-64
2022/06/26 03:16:09;;;;;;;2.63;1.40;;;;;;;;;;4941454;28;20054;-64
2022/06/26 03:18:36;;;;;;;3.53;1.90;;;;;;;;;;4952536;28;20054;-63
2022/06/26 03:21:04;;;;;;;12.35;4.22;;;;;;;;;;4942103;28;20102;-64
2022/06/26 03:26:11;;;;;;;4.95;1.90;;;;;;;;;;4943716;28;20055;-66
2022/06/26 03:28:38;;;;;;;4.20;1.95;;;;;;;;;;4964352;28;20082;-63
2022/06/26 03:31:04;;;;;;;6.65;1.88;;;;;;;;;;4951614;28;20065;-63
2022/06/26 03:33:31;;;;;;;5.30;2.42;;;;;;;;;;4942404;28;20201;-64
2022/06/26 03:35:58;;;;;;;6.82;2.67;;;;;;;;;;4952547;28;20057;-64
2022/06/26 03:38:26;;;;;;;7.70;3.38;;;;;;;;;;4957465;28;20047;-64
2022/06/26 03:40:52;;;;;;;14.65;8.60;;;;;;;;;;4951832;28;20059;-64
2022/06/26 03:43:19;;;;;;;10.27;4.85;;;;;;;;;;4959899;28;20215;-64
2022/06/26 03:45:46;;;;;;;9.90;5.13;;;;;;;;;;4952021;28;20058;-64
2022/06/26 03:48:13;;;;;;;7.40;3.45;;;;;;;;;;4967392;28;20055;-64
2022/06/26 03:50:40;;;;;;;6.20;3.20;;;;;;;;;;4942185;28;20154;-63
2022/06/26 03:53:07;;;;;;;8.30;3.17;;;;;;;;;;4964496;28;20062;-64
2022/06/26 03:55:35;;;;;;;13.50;6.45;;;;;;;;;;4943080;28;20039;-64
2022/06/26 03:58:04;;;;;;;5.72;2.85;;;;;;;;;;4952626;28;20142;-64
2022/06/26 04:00:31;;;;;;;15.95;7.30;;;;;;;;;;4959962;28;20185;-64
2022/06/26 04:02:58;;;;;;;14.88;6.60;;;;;;;;;;4953646;28;20054;-64
2022/06/26 04:05:25;;;;;;;8.50;3.55;;;;;;;;;;4950080;28;20042;-63
2022/06/26 04:07:51;;;;;;;8.55;3.35;;;;;;;;;;4977795;28;20046;-64
2022/06/26 04:10:18;;;;;;;12.77;5.82;;;;;;;;;;4969882;28;20054;-64
2022/06/26 04:12:46;;;;;;;12.65;5.22;;;;;;;;;;4947636;28;20101;-64
2022/06/26 04:15:12;;;;;;;9.05;4.30;;;;;;;;;;4948108;28;20069;-64
2022/06/26 04:17:39;;;;;;;5.88;3.13;;;;;;;;;;4962224;28;20069;-64
2022/06/26 04:20:07;;;;;;;6.82;3.20;;;;;;;;;;4947582;28;20169;-64
2022/06/26 04:22:34;;;;;;;7.30;3.08;;;;;;;;;;4951695;28;20093;-63
2022/06/26 04:25:01;;;;;;;14.00;6.28;;;;;;;;;;4953169;28;20079;-64
2022/06/26 04:27:28;;;;;;;11.30;5.07;;;;;;;;;;4948736;28;20086;-64
2022/06/26 04:29:56;;;;;;;7.45;3.78;;;;;;;;;;4950620;28;20050;-64
2022/06/26 04:32:23;;;;;;;10.13;3.80;;;;;;;;;;4952054;28;20067;-64
2022/06/26 04:34:50;;;;;;;12.73;6.68;;;;;;;;;;4961797;28;20129;-64
2022/06/26 04:37:18;;;;;;;9.13;3.90;;;;;;;;;;4951872;28;20058;-64
2022/06/26 04:39:46;;;;;;;7.97;4.13;;;;;;;;;;4962485;28;20066;-64
2022/06/26 04:42:12;;;;;;;9.55;4.18;;;;;;;;;;4952388;28;20055;-65
2022/06/26 04:44:39;;;;;;;6.82;3.20;;;;;;;;;;4945698;28;20062;-64
2022/06/26 04:47:07;;;;;;;10.68;3.78;;;;;;;;;;4952132;28;20055;-64
2022/06/26 04:49:34;;;;;;;13.27;6.38;;;;;;;;;;4952065;28;20141;-64
2022/06/26 04:52:00;;;;;;;9.02;4.03;;;;;;;;;;4962997;28;20082;-64
2022/06/26 04:54:27;;;;;;;8.55;4.13;;;;;;;;;;4952272;28;20151;-64
2022/06/26 04:56:54;;;;;;;12.25;5.38;;;;;;;;;;4946381;28;20051;-64
2022/06/26 04:59:23;;;;;;;8.63;3.42;;;;;;;;;;4953221;28;20110;-64
2022/06/26 05:01:50;;;;;;;12.88;6.28;;;;;;;;;;4947492;28;20082;-64
2022/06/26 05:04:18;;;;;;;10.90;5.20;;;;;;;;;;4953628;28;20054;-64
2022/06/26 05:06:45;;;;;;;15.52;6.32;;;;;;;;;;4948372;28;20146;-64
2022/06/26 05:09:12;;;;;;;17.08;6.28;;;;;;;;;;4948919;28;20058;-64
2022/06/26 05:11:40;;;;;;;13.10;5.03;;;;;;;;;;4951426;28;20070;-64
2022/06/26 05:14:06;;;;;;;10.63;4.72;;;;;;;;;;4929005;28;20408;-64
2022/06/26 05:16:33;;;;;;;12.20;5.93;;;;;;;;;;4951786;28;20054;-64
2022/06/26 05:19:00;;;;;;;13.25;6.38;;;;;;;;;;4945729;28;20065;-64
2022/06/26 05:21:31;;;;;;;11.27;5.90;;;;;;;;;;4951030;28;20050;-64
2022/06/26 05:23:58;;;;;;;18.10;6.93;;;;;;;;;;4961432;28;20169;-64
2022/06/26 05:26:25;;;;;;;7.18;3.67;;;;;;;;;;4952303;28;20145;-64
2022/06/26 05:28:54;;;;;;;8.30;4.28;;;;;;;;;;4950332;28;20058;-64
2022/06/26 05:31:21;;;;;;;10.30;4.70;;;;;;;;;;4947545;28;20061;-64
2022/06/26 05:33:48;;;;;;;11.50;5.35;;;;;;;;;;4935225;28;20050;-63
2022/06/26 05:36:15;;;;;;;14.95;5.80;;;;;;;;;;4945959;28;20051;-63
2022/06/26 05:38:47;;;;;;;7.97;3.95;;;;;;;;;;4951789;28;20054;-64
2022/06/26 05:41:13;;;;;;;10.23;4.40;;;;;;;;;;4960736;28;20180;-64
2022/06/26 05:43:41;;;;;;;10.50;4.28;;;;;;;;;;4964987;28;20141;-63
2022/06/26 05:46:07;;;;;;;12.40;4.47;;;;;;;;;;4946281;28;20125;-64
2022/06/26 05:48:34;;;;;;;7.38;3.63;;;;;;;;;;4949514;28;20055;-64
2022/06/26 05:51:01;;;;;;;12.13;5.28;;;;;;;;;;4950892;28;20055;-64
2022/06/26 05:53:27;;;;;;;9.77;4.25;;;;;;;;;;4944187;28;20109;-64
2022/06/26 05:55:55;;;;;;;8.48;4.45;;;;;;;;;;4950278;28;20050;-64
2022/06/26 05:58:23;;;;;;;8.85;3.95;;;;;;;;;;4945467;28;20051;-64
2022/06/26 06:00:50;;;;;;;8.97;3.53;;;;;;;;;;4951807;28;20046;-64
2022/06/26 06:03:16;;;;;;;8.48;3.88;;;;;;;;;;4949342;28;20131;-64
2022/06/26 06:05:43;;;;;;;9.88;3.97;;;;;;;;;;4955069;28;20046;-64
2022/06/26 06:08:10;;;;;;;10.23;4.20;;;;;;;;;;4952787;28;20065;-64
2022/06/26 06:10:38;;;;;;;10.43;3.63;;;;;;;;;;4966926;28;20078;-64
2022/06/26 06:13:06;;;;;;;8.57;4.03;;;;;;;;;;4954028;28;20063;-64
2022/06/26 06:15:32;;;;;;;9.48;4.05;;;;;;;;;;4948901;28;20058;-64
2022/06/26 06:17:59;;;;;;;7.95;3.97;;;;;;;;;;4942193;28;20059;-64
2022/06/26 06:20:26;;;;;;;8.93;4.28;;;;;;;;;;4956427;28;20051;-64
2022/06/26 06:22:54;;;;;;;13.55;4.50;;;;;;;;;;4954662;28;20058;-64
2022/06/26 06:25:21;;;;;;;8.45;4.07;;;;;;;;;;4960472;28;20138;-64
2022/06/26 06:27:49;;;;;;;11.82;4.55;;;;;;;;;;4951095;29;20055;-65
2022/06/26 06:30:17;;;;;;;8.02;3.97;;;;;;;;;;4948913;28;20051;-65
2022/06/26 06:32:45;;;;;;;9.38;4.00;;;;;;;;;;4953785;29;20086;-64
2022/06/26 06:35:13;;;;;;;;;;;;;;;;;;4951199;28;20058;-64
2022/06/26 06:37:40;;;;;;;6.10;2.85;;;;;;;;;;4952548;29;19953;-64
2022/06/26 06:40:07;;;;;;;12.00;4.25;;;;;;;;;;4952049;28;20106;-64
2022/06/26 06:42:34;;;;;;;11.77;5.00;;;;;;;;;;4945487;28;20047;-64
2022/06/26 06:45:01;;;;;;;10.00;4.68;;;;;;;;;;4949070;28;20047;-64
2022/06/26 06:47:29;;;;;;;9.15;4.15;;;;;;;;;;4960556;28;20074;-65
2022/06/26 06:49:56;;;;;;;7.15;3.65;;;;;;;;;;4971312;28;20058;-64
2022/06/26 06:52:23;;;;;;;9.10;4.10;;;;;;;;;;4965401;28;20050;-64
2022/06/26 06:54:50;;;;;;;6.75;3.35;;;;;;;;;;4970099;28;20067;-64
2022/06/26 06:57:16;;;;;;;7.97;3.47;;;;;;;;;;4960965;28;20075;-64
2022/06/26 06:59:43;;;;;;;8.73;3.60;;;;;;;;;;4934405;29;20051;-65
2022/06/26 07:02:10;;;;;;;7.30;3.45;;;;;;;;;;4953910;28;20061;-64
2022/06/26 07:04:38;;;;;;;6.18;2.63;;;;;;;;;;4965152;28;20063;-64
2022/06/26 07:07:04;;;;;;;8.60;3.55;;;;;;;;;;4947050;28;20062;-64
2022/06/26 07:09:31;;;;;;;8.43;3.80;;;;;;;;;;4966672;28;20077;-65
2022/06/26 07:11:58;;;;;;;8.00;2.65;;;;;;;;;;4968326;28;20058;-64
2022/06/26 07:14:25;;;;;;;6.25;2.63;;;;;;;;;;4965903;28;20050;-64
2022/06/26 07:16:51;;;;;;;4.38;2.42;;;;;;;;;;4952936;28;20066;-64
2022/06/26 07:19:18;;;;;;;9.73;4.25;;;;;;;;;;4946834;28;20060;-64
2022/06/26 07:21:46;;;;;;;15.80;4.57;;;;;;;;;;4952842;28;20058;-65
2022/06/26 07:24:13;;;;;;;6.22;3.20;;;;;;;;;;4946936;28;20054;-64
2022/06/26 07:26:40;;;;;;;13.20;4.18;;;;;;;;;;4952406;28;20054;-64
2022/06/26 07:29:08;;;;;;;10.23;4.45;;;;;;;;;;4948021;28;20054;-65
2022/06/26 07:31:35;;;;;;;7.13;3.25;;;;;;;;;;4968879;28;20058;-64
2022/06/26 07:34:13;;;;;;;7.80;3.08;;;;;;;;;;4953885;28;20051;-63
2022/06/26 07:36:41;;;;;;;5.13;2.72;;;;;;;;;;4945461;28;20059;-65
2022/06/26 07:39:10;;;;;;;5.13;2.95;;;;;;;;;;4951049;28;20061;-64
2022/06/26 07:41:36;;;;;;;5.10;2.67;;;;;;;;;;4942091;28;20061;-65
2022/06/26 07:44:03;;;;;;;9.32;4.00;;;;;;;;;;4967886;28;20042;-65
2022/06/26 07:46:30;;;;;;;7.95;3.30;;;;;;;;;;4942414;28;20046;-64
2022/06/26 07:48:57;;;;;;;12.60;3.85;;;;;;;;;;4951460;28;20086;-65
2022/06/26 07:51:24;;;;;;;9.77;3.27;;;;;;;;;;4945809;28;20058;-64
2022/06/26 07:53:51;;;;;;;12.45;3.70;;;;;;;;;;4963027;28;20053;-66
2022/06/26 07:56:19;;;;;;;9.27;3.80;;;;;;;;;;4951328;28;20062;-65
2022/06/26 07:58:46;;;;;;;9.10;3.25;;;;;;;;;;4940968;28;20062;-64
2022/06/26 08:01:12;;;;;;;5.90;2.20;;;;;;;;;;4951100;28;20096;-65
2022/06/26 08:03:39;;;;;;;7.13;2.80;;;;;;;;;;4941080;28;20070;-64
2022/06/26 08:06:06;;;;;;;8.52;2.70;;;;;;;;;;4967694;28;20054;-66
2022/06/26 08:08:33;;;;;;;8.05;3.25;;;;;;;;;;4941822;28;20059;-64
2022/06/26 08:11:00;;;;;;;7.82;3.75;;;;;;;;;;4952569;28;20062;-64
2022/06/26 08:13:28;;;;;;;9.82;3.45;;;;;;;;;;4951375;28;20061;-65
2022/06/26 08:15:54;;;;;;;6.55;2.28;;;;;;;;;;4956716;28;20054;-66
2022/06/26 08:18:21;;;;;;;6.15;2.70;;;;;;;;;;4965770;28;20055;-65
2022/06/26 08:20:48;;;;;;;4.75;2.28;;;;;;;;;;4961268;28;20065;-66
2022/06/26 08:23:15;;;;;;;7.47;3.10;;;;;;;;;;4966422;28;20090;-66
2022/06/26 08:25:41;;;;;;;8.77;4.28;;;;;;;;;;4961844;28;20057;-65
2022/06/26 08:28:08;;;;;;;6.38;2.65;;;;;;;;;;4967515;28;20058;-66
2022/06/26 08:30:36;;;;;;;5.22;2.70;;;;;;;;;;4961466;28;20088;-66
2022/06/26 08:33:02;;;;;;;3.72;2.08;;;;;;;;;;4950159;28;20062;-64
2022/06/26 08:35:29;;;;;;;3.40;1.88;;;;;;;;;;4961360;28;20054;-65
2022/06/26 08:37:56;;;;;;;6.72;3.08;;;;;;;;;;4964916;28;20089;-65
2022/06/26 08:40:23;;;;;;;5.00;2.28;;;;;;;;;;4942241;28;20050;-64
2022/06/26 08:42:52;;;;;;;5.55;2.30;;;;;;;;;;4949560;28;20169;-65
2022/06/26 08:45:19;;;;;;;8.35;3.22;;;;;;;;;;4959921;28;20063;-65
2022/06/26 08:47:49;;;;;;;5.20;2.45;;;;;;;;;;4966020;28;20065;-66
2022/06/26 08:50:16;;;;;;;8.18;2.88;;;;;;;;;;4948340;28;20117;-65
2022/06/26 08:52:43;;;;;;;7.05;2.78;;;;;;;;;;4959745;28;20063;-65
2022/06/26 08:55:10;;;;;;;7.90;2.40;;;;;;;;;;4949324;28;20142;-64
2022/06/26 08:57:37;;;;;;;8.82;2.45;;;;;;;;;;4942920;28;20137;-64
2022/06/26 09:00:04;;;;;;;5.50;2.53;;;;;;;;;;4947895;28;20054;-65
2022/06/26 09:02:31;;;;;;;7.22;3.05;;;;;;;;;;4942001;28;20065;-66
2022/06/26 09:04:59;;;;;;;7.22;2.80;;;;;;;;;;4963149;28;20178;-65
2022/06/26 09:07:26;;;;;;;4.60;2.08;;;;;;;;;;4960140;28;20053;-65
2022/06/26 09:09:53;;;;;;;5.22;2.08;;;;;;;;;;4964738;28;20047;-66
2022/06/26 09:12:19;;;;;;;3.20;1.88;;;;;;;;;;4960647;28;20058;-65
2022/06/26 09:14:51;;;;;;;7.38;2.30;;;;;;;;;;4948828;28;20105;-66
2022/06/26 09:17:22;;;;;;;5.15;2.67;;;;;;;;;;4962798;28;20054;-65
2022/06/26 09:19:51;;;;;;;5.85;2.38;;;;;;;;;;4945524;28;20062;-65
2022/06/26 09:22:21;;;;;;;8.00;2.50;;;;;;;;;;4948004;28;20064;-65
2022/06/26 09:24:54;;;;;;;6.20;2.70;;;;;;;;;;4960154;28;20061;-65
2022/06/26 09:27:21;;;;;;;5.20;2.17;;;;;;;;;;4966262;28;20055;-65
2022/06/26 09:29:49;;;;;;;8.88;1.92;;;;;;;;;;4958801;28;20065;-65
2022/06/26 09:32:16;;;;;;;6.97;2.20;;;;;;;;;;4965367;28;20051;-65
2022/06/26 09:34:43;;;;;;;4.05;1.85;;;;;;;;;;4957770;28;20070;-65
2022/06/26 09:37:10;;;;;;;7.22;2.53;;;;;;;;;;4968591;28;20148;-65
2022/06/26 09:39:40;;;;;;;4.47;2.05;;;;;;;;;;4969106;28;20151;-65
2022/06/26 09:42:21;;;;;;;4.50;1.83;;;;;;;;;;4966364;28;20113;-65
2022/06/26 09:44:48;;;;;;;3.75;1.75;;;;;;;;;;4953910;28;20061;-65
2022/06/26 09:47:22;;;;;;;2.95;1.77;;;;;;;;;;4949846;28;20055;-67
2022/06/26 09:49:54;;;;;;;6.60;2.50;;;;;;;;;;4954579;28;20383;-65
2022/06/26 09:52:21;;;;;;;8.13;2.42;;;;;;;;;;4947449;28;20062;-65
2022/06/26 09:54:49;;;;;;;8.13;2.03;;;;;;;;;;4953045;28;20055;-65
2022/06/26 09:57:16;;;;;;;7.90;2.53;;;;;;;;;;4963435;28;20065;-66
2022/06/26 09:59:43;;;;;;;3.58;2.00;;;;;;;;;;4968122;28;20047;-65
2022/06/26 10:07:40;;;;;;;4.82;2.35;;;;;;;;;;4943866;28;20065;-65
2022/06/26 10:10:09;;;;;;;4.55;2.30;;;;;;;;;;4949359;28;20092;-65
2022/06/26 10:12:35;;;;;;;;;;;;;;;;;;4951461;28;20059;-65
2022/06/26 10:15:02;;;;;;;2.70;1.42;;;;;;;;;;4939576;28;19921;-67
2022/06/26 10:17:36;;;;;;;4.32;1.90;;;;;;;;;;4969030;28;20051;-65
2022/06/26 10:20:05;;;;;;;4.28;1.92;;;;;;;;;;4959827;28;20050;-65
2022/06/26 10:22:38;;;;;;;5.97;1.90;;;;;;;;;;4968413;28;20058;-65
2022/06/26 10:25:06;;;;;;;9.00;2.13;;;;;;;;;;4959821;28;20054;-64
2022/06/26 10:27:35;;;;;;;3.22;1.67;;;;;;;;;;4968900;28;20113;-65
2022/06/26 10:30:07;;;;;;;10.10;2.67;;;;;;;;;;4947093;28;20066;-65
2022/06/26 10:32:34;;;;;;;4.40;2.00;;;;;;;;;;4949917;28;20081;-65
2022/06/26 10:35:01;;;;;;;6.88;2.17;;;;;;;;;;4968800;28;20122;-65
2022/06/26 10:37:27;;;;;;;6.82;2.25;;;;;;;;;;4941713;28;20080;-65
2022/06/26 10:39:58;;;;;;;5.43;2.35;;;;;;;;;;4967916;28;20082;-65
2022/06/26 10:45:14;;;;;;;4.15;2.13;;;;;;;;;;4951782;28;20085;-65
2022/06/26 10:47:45;;;;;;;4.88;2.00;;;;;;;;;;4956482;28;20059;-65
2022/06/26 10:50:32;;;;;;;3.55;1.73;;;;;;;;;;4968139;28;20054;-65
2022/06/26 10:53:21;;;;;;;11.82;2.83;;;;;;;;;;4942493;28;20066;-65
2022/06/26 10:55:49;;;;;;;5.93;2.30;;;;;;;;;;4964528;28;20062;-64
2022/06/26 10:58:24;;;;;;;8.15;2.47;;;;;;;;;;4943833;28;20062;-62
2022/06/26 11:00:53;;;;;;;5.60;2.05;;;;;;;;;;4963268;28;20059;-65
2022/06/26 11:03:21;;;;;;;7.78;2.63;;;;;;;;;;4966259;28;20059;-65
2022/06/26 11:05:58;;;;;;;4.40;1.77;;;;;;;;;;4959817;28;20062;-65
2022/06/26 11:08:27;;;;;;;9.10;2.50;;;;;;;;;;4951057;28;20054;-65
2022/06/26 11:10:53;;;;;;;;;;;;;;;;;;4944278;28;20062;-64
2022/06/26 11:13:20;;;;;;;5.18;1.90;;;;;;;;;;4967597;28;19953;-64
2022/06/26 11:15:46;;;;;;;10.50;2.20;;;;;;;;;;4941871;28;20066;-65
2022/06/26 11:18:15;;;;;;;4.13;1.80;;;;;;;;;;4965993;28;20063;-65
2022/06/26 11:20:46;;;;;;;;;;;;;;;;;;4965613;28;20067;-65
2022/06/26 11:23:14;;;;;;;5.88;1.70;;;;;;;;;;4954145;28;19921;-65
2022/06/26 11:25:41;;;;;;;6.10;2.33;;;;;;;;;;4955743;28;20145;-64
2022/06/26 11:28:10;;;;;;;5.45;1.90;;;;;;;;;;4965263;28;20302;-66
2022/06/26 11:30:37;;;;;;;5.63;2.40;;;;;;;;;;4953698;28;20077;-66
2022/06/26 11:33:04;;;;;;;5.18;2.03;;;;;;;;;;4946903;28;20065;-64
2022/06/26 11:35:34;;;;;;;9.45;2.25;;;;;;;;;;4953085;28;20054;-65
2022/06/26 11:38:08;;;;;;;4.97;2.00;;;;;;;;;;4946980;28;20057;-65
2022/06/26 11:40:35;;;;;;;4.80;1.95;;;;;;;;;;4953981;28;20143;-64
2022/06/26 11:43:02;;;;;;;5.22;1.92;;;;;;;;;;4949546;28;20141;-65
2022/06/26 11:45:31;;;;;;;5.88;2.50;;;;;;;;;;4950964;28;20078;-65
2022/06/26 11:47:59;;;;;;;11.10;2.80;;;;;;;;;;4937887;29;20078;-65
2022/06/26 11:50:27;;;;;;;5.78;2.13;;;;;;;;;;4961042;28;20053;-65
2022/06/26 11:52:56;;;;;;;7.78;2.30;;;;;;;;;;4953067;28;20066;-65
2022/06/26 11:55:24;;;;;;;5.25;1.98;;;;;;;;;;4946950;28;20042;-65
2022/06/26 11:57:51;;;;;;;;;;;;;;;;;;4952806;28;20079;-65
2022/06/26 12:00:19;;;;;;;5.45;1.80;;;;;;;;;;4946532;28;19996;-64
2022/06/26 12:02:49;;;;;;;6.40;1.92;;;;;;;;;;4953049;28;20062;-66
2022/06/26 12:05:19;;;;;;;6.88;2.13;;;;;;;;;;4950033;28;20062;-65
2022/06/26 12:07:48;;;;;;;5.63;1.77;;;;;;;;;;4950460;28;20058;-64
2022/06/26 12:10:27;;;;;;;4.82;1.92;;;;;;;;;;4951520;28;20066;-65
2022/06/26 12:12:54;;;;;;;5.13;2.00;;;;;;;;;;4962235;28;20086;-61
2022/06/26 12:15:20;;;;;;;12.57;4.30;;;;;;;;;;4952396;28;20058;-64
2022/06/26 12:17:52;;;;;;;8.23;3.10;;;;;;;;;;4946742;28;20059;-64
2022/06/26 12:20:18;;;;;;;7.88;2.92;;;;;;;;;;4952586;28;20057;-63
2022/06/26 12:22:48;;;;;;;8.77;2.63;;;;;;;;;;4938501;28;20063;-63
2022/06/26 12:25:24;;;;;;;6.65;2.05;;;;;;;;;;4933073;29;20047;-64
2022/06/26 12:27:52;;;;;;;7.15;2.80;;;;;;;;;;4929511;28;20051;-64
2022/06/26 12:30:19;;;;;;;7.07;2.65;;;;;;;;;;4949480;29;20051;-64
2022/06/26 12:32:46;;;;;;;6.07;2.60;;;;;;;;;;4934337;28;20058;-65
2022/06/26 12:35:13;;;;;;;7.38;2.60;;;;;;;;;;4968013;28;20057;-64
2022/06/26 12:37:39;;;;;;;7.60;2.40;;;;;;;;;;4959972;28;20047;-64
2022/06/26 12:40:07;;;;;;;6.63;2.15;;;;;;;;;;4948855;29;20316;-64
2022/06/26 12:42:33;;;;;;;4.45;2.22;;;;;;;;;;4944132;28;20043;-64
2022/06/26 12:45:01;;;;;;;8.85;2.72;;;;;;;;;;4948460;29;20051;-64
2022/06/26 12:47:28;;;;;;;4.97;2.03;;;;;;;;;;4948191;29;20055;-64
2022/06/26 12:49:55;;;;;;;8.15;2.63;;;;;;;;;;4962253;28;20047;-64
2022/06/26 12:52:22;;;;;;;6.47;2.13;;;;;;;;;;4967960;28;20088;-64
2022/06/26 12:54:49;;;;;;;6.55;2.30;;;;;;;;;;4963383;28;20053;-65
2022/06/26 12:57:15;;;;;;;4.47;2.20;;;;;;;;;;4969584;28;20051;-64
2022/06/26 12:59:42;;;;;;;8.13;2.40;;;;;;;;;;4946273;28;20141;-64
2022/06/26 13:02:11;;;;;;;8.43;2.28;;;;;;;;;;4968256;28;20137;-64
2022/06/26 13:04:37;;;;;;;5.72;2.13;;;;;;;;;;4970682;28;20067;-65
2022/06/26 13:07:04;;;;;;;7.63;2.50;;;;;;;;;;4967649;28;20066;-65
2022/06/26 13:09:31;;;;;;;9.00;2.10;;;;;;;;;;4962793;28;20090;-65
2022/06/26 13:12:00;;;;;;;7.65;2.30;;;;;;;;;;4958018;28;20088;-66
2022/06/26 13:14:27;;;;;;;5.85;2.25;;;;;;;;;;4944047;28;20058;-65
2022/06/26 13:16:53;;;;;;;6.63;2.53;;;;;;;;;;4964944;28;20144;-65
2022/06/26 13:19:23;;;;;;;8.93;2.03;;;;;;;;;;4943455;28;20062;-65
2022/06/26 13:21:52;;;;;;;6.25;2.38;;;;;;;;;;4946968;29;20055;-65
2022/06/26 13:24:18;;;;;;;;;;;;;;;;;;4946863;28;20059;-65
2022/06/26 13:26:47;;;;;;;3.92;1.88;;;;;;;;;;4941840;28;19926;-65
2022/06/26 13:29:13;;;;;;;6.03;1.67;;;;;;;;;;4965427;28;20059;-65
2022/06/26 13:31:40;;;;;;;4.15;1.77;;;;;;;;;;4965829;28;20058;-65
2022/06/26 13:34:07;;;;;;;5.55;1.95;;;;;;;;;;4967537;28;20059;-65
2022/06/26 13:36:35;;;;;;;7.53;2.20;;;;;;;;;;4976325;28;20054;-65
2022/06/26 13:39:02;;;;;;;5.97;1.70;;;;;;;;;;4952402;28;20051;-65
2022/06/26 13:41:29;;;;;;;5.30;1.73;;;;;;;;;;4943418;28;20059;-65
2022/06/26 13:43:59;;;;;;;9.45;2.10;;;;;;;;;;4948250;28;20055;-65
2022/06/26 13:46:26;;;;;;;8.15;2.20;;;;;;;;;;4944249;28;20070;-64
2022/06/26 13:48:52;;;;;;;4.65;1.70;;;;;;;;;;4948646;28;20059;-65
2022/06/26 13:51:19;;;;;;;3.63;1.80;;;;;;;;;;4942793;28;20150;-65
2022/06/26 13:53:47;;;;;;;5.20;1.73;;;;;;;;;;4947922;28;20055;-65
2022/06/26 13:56:16;;;;;;;6.43;2.17;;;;;;;;;;4951247;28;20145;-65
2022/06/26 13:58:42;;;;;;;;;;;;;;;;;;4965317;28;20098;-65
2022/06/26 14:01:09;;;;;;;5.07;1.73;;;;;;;;;;4941886;28;19981;-65
2022/06/26 14:03:35;;;;;;;3.80;1.60;;;;;;;;;;4942982;28;20178;-65
2022/06/26 14:06:02;;;;;;;6.57;1.88;;;;;;;;;;4936711;28;20059;-64
2022/06/26 14:08:29;;;;;;;4.95;2.13;;;;;;;;;;4961772;28;20059;-64
2022/06/26 14:10:57;;;;;;;6.68;2.00;;;;;;;;;;4949607;28;20133;-65
2022/06/26 14:13:24;;;;;;;7.55;2.30;;;;;;;;;;4938707;28;20066;-65
2022/06/26 14:15:51;;;;;;;6.78;2.22;;;;;;;;;;4960965;28;20059;-65
2022/06/26 14:18:17;;;;;;;4.57;2.00;;;;;;;;;;4938938;28;20074;-65
2022/06/26 14:20:46;;;;;;;4.18;1.75;;;;;;;;;;4947104;28;20043;-65
2022/06/26 14:25:59;;;;;;;4.88;1.42;;;;;;;;;;4951507;28;20057;-65
2022/06/26 14:28:26;;;;;;;9.13;1.70;;;;;;;;;;4944535;28;20165;-65
2022/06/26 14:30:52;;;;;;;5.70;1.45;;;;;;;;;;4967234;28;20051;-65
2022/06/26 14:33:22;;;;;;;6.38;1.52;;;;;;;;;;4951885;28;20145;-65
2022/06/26 14:35:48;;;;;;;4.07;1.50;;;;;;;;;;4960313;28;20054;-65
2022/06/26 14:38:18;;;;;;;3.30;1.58;;;;;;;;;;4951365;28;20066;-65
2022/06/26 14:40:45;;;;;;;5.07;1.40;;;;;;;;;;4955388;28;20062;-65
2022/06/26 14:43:13;;;;;;;2.42;1.20;;;;;;;;;;4966720;28;20050;-65
2022/06/26 14:45:40;;;;;;;6.32;1.50;;;;;;;;;;4942154;28;20061;-64
2022/06/26 14:48:06;;;;;;;4.38;1.70;;;;;;;;;;4951780;28;20054;-65
2022/06/26 14:50:33;;;;;;;3.63;1.40;;;;;;;;;;4949296;28;20043;-65
2022/06/26 14:53:00;;;;;;;5.00;1.30;;;;;;;;;;4959488;28;20053;-65
2022/06/26 14:55:26;;;;;;;5.95;1.42;;;;;;;;;;4967745;28;20062;-65
2022/06/26 14:57:53;;;;;;;6.05;1.58;;;;;;;;;;4942261;28;20054;-65
2022/06/26 15:00:21;;;;;;;4.13;1.38;;;;;;;;;;4951781;28;20050;-65
2022/06/26 15:02:47;;;;;;;6.50;1.42;;;;;;;;;;4941201;28;20110;-65
2022/06/26 15:05:14;;;;;;;3.35;1.20;;;;;;;;;;4952174;28;20059;-65